sensor_id;sensor_type;location;lat;lon;timestamp;temperature;humidity
423;DHT22;198;48.752;9.180;2023-10-31T00:02:00;11.50;99.90
423;DHT22;198;48.752;9.180;2023-10-31T00:04:26;11.50;99.90
423;DHT22;198;48.752;9.180;2023-10-31T00:06:51;11.50;99.90
423;DHT22;198;48.752;9.180;2023-10-31T00:09:16;11.50;99.90
423;DHT22;198;48.752;9.180;2023-10-31T00:11:43;11.50;99.90
423;DHT22;198;48.752;9.180;2023-10-31T00:14:09;11.40;99.90
423;DHT22;198;48.752;9.180;2023-10-31T00:16:35;11.40;99.90
423;DHT22;198;48.752;9.180;2023-10-31T00:19:00;11.40;99.90
423;DHT22;198;48.752;9.180;2023-10-31T00:21:26;11.40;99.90
423;DHT22;198;48.752;9.180;2023-10-31T00:23:51;11.30;99.90
423;DHT22;198;48.752;9.180;2023-10-31T00:26:17;11.40;99.90
423;DHT22;198;48.752;9.180;2023-10-31T00:28:42;11.30;99.90
423;DHT22;198;48.752;9.180;2023-10-31T00:31:08;11.30;99.90
423;DHT22;198;48.752;9.180;2023-10-31T00:33:37;11.30;99.90
423;DHT22;198;48.752;9.180;2023-10-31T00:36:03;11.30;99.90
423;DHT22;198;48.752;9.180;2023-10-31T00:38:29;11.30;99.90
423;DHT22;198;48.752;9.180;2023-10-31T00:40:55;11.30;99.90
423;DHT22;198;48.752;9.180;2023-10-31T00:43:20;11.30;99.90
423;DHT22;198;48.752;9.180;2023-10-31T00:45:46;11.40;99.90
423;DHT22;198;48.752;9.180;2023-10-31T00:48:11;11.30;99.90
423;DHT22;198;48.752;9.180;2023-10-31T00:50:36;11.30;99.90
423;DHT22;198;48.752;9.180;2023-10-31T00:53:02;11.40;99.90
423;DHT22;198;48.752;9.180;2023-10-31T00:55:27;11.30;99.90
423;DHT22;198;48.752;9.180;2023-10-31T00:57:53;11.30;99.90
423;DHT22;198;48.752;9.180;2023-10-31T01:00:19;11.30;99.90
423;DHT22;198;48.752;9.180;2023-10-31T01:02:44;11.20;99.90
423;DHT22;198;48.752;9.180;2023-10-31T01:05:11;11.20;99.90
423;DHT22;198;48.752;9.180;2023-10-31T01:07:36;11.20;99.90
423;DHT22;198;48.752;9.180;2023-10-31T01:10:03;11.10;99.90
423;DHT22;198;48.752;9.180;2023-10-31T01:12:28;11.00;99.90
423;DHT22;198;48.752;9.180;2023-10-31T01:14:55;11.00;99.90
423;DHT22;198;48.752;9.180;2023-10-31T01:17:21;10.90;99.90
423;DHT22;198;48.752;9.180;2023-10-31T01:19:46;10.80;99.90
423;DHT22;198;48.752;9.180;2023-10-31T01:22:12;10.70;99.90
423;DHT22;198;48.752;9.180;2023-10-31T01:24:37;10.60;99.90
423;DHT22;198;48.752;9.180;2023-10-31T01:27:03;10.60;99.90
423;DHT22;198;48.752;9.180;2023-10-31T01:29:29;10.50;99.90
423;DHT22;198;48.752;9.180;2023-10-31T01:31:55;10.50;99.90
423;DHT22;198;48.752;9.180;2023-10-31T01:34:21;10.50;99.90
423;DHT22;198;48.752;9.180;2023-10-31T01:36:46;10.40;99.90
423;DHT22;198;48.752;9.180;2023-10-31T01:39:12;10.40;99.90
423;DHT22;198;48.752;9.180;2023-10-31T01:41:37;10.40;99.90
423;DHT22;198;48.752;9.180;2023-10-31T01:44:05;10.40;99.90
423;DHT22;198;48.752;9.180;2023-10-31T01:46:31;10.40;99.90
423;DHT22;198;48.752;9.180;2023-10-31T01:48:57;10.40;99.90
423;DHT22;198;48.752;9.180;2023-10-31T01:51:23;10.40;99.90
423;DHT22;198;48.752;9.180;2023-10-31T01:53:48;10.40;99.90
423;DHT22;198;48.752;9.180;2023-10-31T01:56:14;10.50;99.90
423;DHT22;198;48.752;9.180;2023-10-31T01:58:40;10.50;99.90
423;DHT22;198;48.752;9.180;2023-10-31T02:01:07;10.60;99.90
423;DHT22;198;48.752;9.180;2023-10-31T02:03:32;10.60;99.90
423;DHT22;198;48.752;9.180;2023-10-31T02:05:58;10.60;99.90
423;DHT22;198;48.752;9.180;2023-10-31T02:08:25;10.60;99.90
423;DHT22;198;48.752;9.180;2023-10-31T02:10:51;10.60;99.90
423;DHT22;198;48.752;9.180;2023-10-31T02:13:17;10.60;99.90
423;DHT22;198;48.752;9.180;2023-10-31T02:15:43;10.60;99.90
423;DHT22;198;48.752;9.180;2023-10-31T02:18:10;10.60;99.90
423;DHT22;198;48.752;9.180;2023-10-31T02:20:36;10.60;99.90
423;DHT22;198;48.752;9.180;2023-10-31T02:23:02;10.60;99.90
423;DHT22;198;48.752;9.180;2023-10-31T02:25:28;10.50;99.90
423;DHT22;198;48.752;9.180;2023-10-31T02:27:54;10.50;99.90
423;DHT22;198;48.752;9.180;2023-10-31T02:30:19;10.50;99.90
423;DHT22;198;48.752;9.180;2023-10-31T02:32:45;10.50;99.90
423;DHT22;198;48.752;9.180;2023-10-31T02:35:11;10.60;99.90
423;DHT22;198;48.752;9.180;2023-10-31T02:37:36;10.60;99.90
423;DHT22;198;48.752;9.180;2023-10-31T02:40:03;10.60;99.90
423;DHT22;198;48.752;9.180;2023-10-31T02:42:29;10.60;99.90
423;DHT22;198;48.752;9.180;2023-10-31T02:44:54;10.50;99.90
423;DHT22;198;48.752;9.180;2023-10-31T02:47:20;10.50;99.90
423;DHT22;198;48.752;9.180;2023-10-31T02:49:45;10.60;99.90
423;DHT22;198;48.752;9.180;2023-10-31T02:52:11;10.50;99.90
423;DHT22;198;48.752;9.180;2023-10-31T02:54:36;10.50;99.90
423;DHT22;198;48.752;9.180;2023-10-31T02:57:02;10.60;99.90
423;DHT22;198;48.752;9.180;2023-10-31T02:59:28;10.60;99.90
423;DHT22;198;48.752;9.180;2023-10-31T03:01:55;10.70;99.90
423;DHT22;198;48.752;9.180;2023-10-31T03:04:21;10.70;99.90
423;DHT22;198;48.752;9.180;2023-10-31T03:06:46;10.80;99.90
423;DHT22;198;48.752;9.180;2023-10-31T03:09:12;10.80;99.90
423;DHT22;198;48.752;9.180;2023-10-31T03:11:37;10.80;99.90
423;DHT22;198;48.752;9.180;2023-10-31T03:14:03;10.80;99.90
423;DHT22;198;48.752;9.180;2023-10-31T03:16:28;10.80;99.90
423;DHT22;198;48.752;9.180;2023-10-31T03:18:54;10.80;99.90
423;DHT22;198;48.752;9.180;2023-10-31T03:21:19;10.70;99.90
423;DHT22;198;48.752;9.180;2023-10-31T03:23:49;10.70;99.90
423;DHT22;198;48.752;9.180;2023-10-31T03:26:18;10.70;99.90
423;DHT22;198;48.752;9.180;2023-10-31T03:28:44;10.70;99.90
423;DHT22;198;48.752;9.180;2023-10-31T03:31:10;10.60;99.90
423;DHT22;198;48.752;9.180;2023-10-31T03:33:36;10.60;99.90
423;DHT22;198;48.752;9.180;2023-10-31T03:36:02;10.60;99.90
423;DHT22;198;48.752;9.180;2023-10-31T03:38:27;10.60;99.90
423;DHT22;198;48.752;9.180;2023-10-31T03:40:53;10.60;99.90
423;DHT22;198;48.752;9.180;2023-10-31T03:43:19;10.60;99.90
423;DHT22;198;48.752;9.180;2023-10-31T03:45:46;10.50;99.90
423;DHT22;198;48.752;9.180;2023-10-31T03:48:12;10.50;99.90
423;DHT22;198;48.752;9.180;2023-10-31T03:50:38;10.40;99.90
423;DHT22;198;48.752;9.180;2023-10-31T03:53:03;10.40;99.90
423;DHT22;198;48.752;9.180;2023-10-31T03:55:29;10.30;99.90
423;DHT22;198;48.752;9.180;2023-10-31T03:57:55;10.30;99.90
423;DHT22;198;48.752;9.180;2023-10-31T04:00:21;10.30;99.90
423;DHT22;198;48.752;9.180;2023-10-31T04:02:47;10.30;99.90
423;DHT22;198;48.752;9.180;2023-10-31T04:05:12;10.20;99.90
423;DHT22;198;48.752;9.180;2023-10-31T04:07:38;10.20;99.90
423;DHT22;198;48.752;9.180;2023-10-31T04:10:03;10.20;99.90
423;DHT22;198;48.752;9.180;2023-10-31T04:12:29;10.20;99.90
423;DHT22;198;48.752;9.180;2023-10-31T04:14:55;10.20;99.90
423;DHT22;198;48.752;9.180;2023-10-31T04:17:20;10.10;99.90
423;DHT22;198;48.752;9.180;2023-10-31T04:19:46;10.20;99.90
423;DHT22;198;48.752;9.180;2023-10-31T04:22:11;10.20;99.90
423;DHT22;198;48.752;9.180;2023-10-31T04:24:37;10.20;99.90
423;DHT22;198;48.752;9.180;2023-10-31T04:27:02;10.30;99.90
423;DHT22;198;48.752;9.180;2023-10-31T04:29:28;10.30;99.90
423;DHT22;198;48.752;9.180;2023-10-31T04:31:53;10.30;99.90
423;DHT22;198;48.752;9.180;2023-10-31T04:34:19;10.30;99.90
423;DHT22;198;48.752;9.180;2023-10-31T04:36:44;10.30;99.90
423;DHT22;198;48.752;9.180;2023-10-31T04:39:10;10.30;99.90
423;DHT22;198;48.752;9.180;2023-10-31T04:41:36;10.30;99.90
423;DHT22;198;48.752;9.180;2023-10-31T04:44:02;10.20;99.90
423;DHT22;198;48.752;9.180;2023-10-31T04:46:28;10.20;99.90
423;DHT22;198;48.752;9.180;2023-10-31T04:48:53;10.10;99.90
423;DHT22;198;48.752;9.180;2023-10-31T04:51:19;10.10;99.90
423;DHT22;198;48.752;9.180;2023-10-31T04:53:45;10.10;99.90
423;DHT22;198;48.752;9.180;2023-10-31T04:56:14;10.10;99.90
423;DHT22;198;48.752;9.180;2023-10-31T04:58:41;10.00;99.90
423;DHT22;198;48.752;9.180;2023-10-31T05:01:11;10.00;99.90
423;DHT22;198;48.752;9.180;2023-10-31T05:03:37;9.90;99.90
423;DHT22;198;48.752;9.180;2023-10-31T05:06:03;9.90;99.90
423;DHT22;198;48.752;9.180;2023-10-31T05:08:29;9.90;99.90
423;DHT22;198;48.752;9.180;2023-10-31T05:10:55;9.90;99.90
423;DHT22;198;48.752;9.180;2023-10-31T05:13:21;9.90;99.90
423;DHT22;198;48.752;9.180;2023-10-31T05:15:46;9.90;99.90
423;DHT22;198;48.752;9.180;2023-10-31T05:18:12;9.90;99.90
423;DHT22;198;48.752;9.180;2023-10-31T05:20:37;9.90;99.90
423;DHT22;198;48.752;9.180;2023-10-31T05:23:03;9.90;99.90
423;DHT22;198;48.752;9.180;2023-10-31T05:25:28;9.90;99.90
423;DHT22;198;48.752;9.180;2023-10-31T05:27:54;9.80;99.90
423;DHT22;198;48.752;9.180;2023-10-31T05:30:19;9.80;99.90
423;DHT22;198;48.752;9.180;2023-10-31T05:32:46;9.70;99.90
423;DHT22;198;48.752;9.180;2023-10-31T05:35:12;9.70;99.90
423;DHT22;198;48.752;9.180;2023-10-31T05:37:37;9.70;99.90
423;DHT22;198;48.752;9.180;2023-10-31T05:40:03;9.70;99.90
423;DHT22;198;48.752;9.180;2023-10-31T05:42:28;9.60;99.90
423;DHT22;198;48.752;9.180;2023-10-31T05:44:54;9.60;99.90
423;DHT22;198;48.752;9.180;2023-10-31T05:47:20;9.60;99.90
423;DHT22;198;48.752;9.180;2023-10-31T05:49:47;9.60;99.90
423;DHT22;198;48.752;9.180;2023-10-31T05:52:12;9.60;99.90
423;DHT22;198;48.752;9.180;2023-10-31T05:54:38;9.60;99.90
423;DHT22;198;48.752;9.180;2023-10-31T05:57:03;9.50;99.90
423;DHT22;198;48.752;9.180;2023-10-31T05:59:29;9.50;99.90
423;DHT22;198;48.752;9.180;2023-10-31T06:01:54;9.60;99.90
423;DHT22;198;48.752;9.180;2023-10-31T06:04:20;9.60;99.90
423;DHT22;198;48.752;9.180;2023-10-31T06:06:45;9.60;99.90
423;DHT22;198;48.752;9.180;2023-10-31T06:09:11;9.50;99.90
423;DHT22;198;48.752;9.180;2023-10-31T06:11:42;9.50;99.90
423;DHT22;198;48.752;9.180;2023-10-31T06:14:08;9.60;99.90
423;DHT22;198;48.752;9.180;2023-10-31T06:16:40;9.60;99.90
423;DHT22;198;48.752;9.180;2023-10-31T06:19:06;9.60;99.90
423;DHT22;198;48.752;9.180;2023-10-31T06:21:31;9.70;99.90
423;DHT22;198;48.752;9.180;2023-10-31T06:23:57;9.70;99.90
423;DHT22;198;48.752;9.180;2023-10-31T06:26:22;9.70;99.90
423;DHT22;198;48.752;9.180;2023-10-31T06:28:47;9.70;99.90
423;DHT22;198;48.752;9.180;2023-10-31T06:31:13;9.80;99.90
423;DHT22;198;48.752;9.180;2023-10-31T06:33:38;9.70;99.90
423;DHT22;198;48.752;9.180;2023-10-31T06:36:04;9.70;99.90
423;DHT22;198;48.752;9.180;2023-10-31T06:38:31;9.70;99.90
423;DHT22;198;48.752;9.180;2023-10-31T06:40:57;9.70;99.90
423;DHT22;198;48.752;9.180;2023-10-31T06:43:28;9.70;99.90
423;DHT22;198;48.752;9.180;2023-10-31T06:45:54;9.70;99.90
423;DHT22;198;48.752;9.180;2023-10-31T06:48:20;9.70;99.90
423;DHT22;198;48.752;9.180;2023-10-31T06:50:46;9.70;99.90
423;DHT22;198;48.752;9.180;2023-10-31T06:53:11;9.70;99.90
423;DHT22;198;48.752;9.180;2023-10-31T06:55:37;9.70;99.90
423;DHT22;198;48.752;9.180;2023-10-31T06:58:02;9.80;99.90
423;DHT22;198;48.752;9.180;2023-10-31T07:00:28;9.90;99.90
423;DHT22;198;48.752;9.180;2023-10-31T07:02:53;10.00;99.90
423;DHT22;198;48.752;9.180;2023-10-31T07:05:19;10.10;99.90
423;DHT22;198;48.752;9.180;2023-10-31T07:07:46;10.10;99.90
423;DHT22;198;48.752;9.180;2023-10-31T07:10:11;10.20;99.90
423;DHT22;198;48.752;9.180;2023-10-31T07:12:37;10.30;99.90
423;DHT22;198;48.752;9.180;2023-10-31T07:15:03;10.30;99.90
423;DHT22;198;48.752;9.180;2023-10-31T07:17:29;10.40;99.90
423;DHT22;198;48.752;9.180;2023-10-31T07:19:55;10.50;99.90
423;DHT22;198;48.752;9.180;2023-10-31T07:22:21;10.50;99.90
423;DHT22;198;48.752;9.180;2023-10-31T07:24:47;10.60;99.90
423;DHT22;198;48.752;9.180;2023-10-31T07:27:13;10.70;99.90
423;DHT22;198;48.752;9.180;2023-10-31T07:29:40;10.60;99.90
423;DHT22;198;48.752;9.180;2023-10-31T07:32:06;10.70;99.90
423;DHT22;198;48.752;9.180;2023-10-31T07:34:32;10.70;99.90
423;DHT22;198;48.752;9.180;2023-10-31T07:36:57;10.80;99.90
423;DHT22;198;48.752;9.180;2023-10-31T07:39:23;10.80;99.90
423;DHT22;198;48.752;9.180;2023-10-31T07:41:48;10.80;99.90
423;DHT22;198;48.752;9.180;2023-10-31T07:44:14;10.90;99.90
423;DHT22;198;48.752;9.180;2023-10-31T07:46:39;11.00;99.90
423;DHT22;198;48.752;9.180;2023-10-31T07:49:05;11.00;99.90
423;DHT22;198;48.752;9.180;2023-10-31T07:51:31;11.10;99.90
423;DHT22;198;48.752;9.180;2023-10-31T07:53:56;11.10;99.90
423;DHT22;198;48.752;9.180;2023-10-31T07:56:24;11.20;99.90
423;DHT22;198;48.752;9.180;2023-10-31T07:58:51;11.30;99.90
423;DHT22;198;48.752;9.180;2023-10-31T08:01:18;11.40;99.90
423;DHT22;198;48.752;9.180;2023-10-31T08:03:43;11.50;99.90
423;DHT22;198;48.752;9.180;2023-10-31T08:06:11;11.60;99.90
423;DHT22;198;48.752;9.180;2023-10-31T08:08:36;11.70;99.90
423;DHT22;198;48.752;9.180;2023-10-31T08:11:02;11.80;99.90
423;DHT22;198;48.752;9.180;2023-10-31T08:13:28;11.80;99.90
423;DHT22;198;48.752;9.180;2023-10-31T08:15:53;11.90;99.90
423;DHT22;198;48.752;9.180;2023-10-31T08:18:19;12.00;99.90
423;DHT22;198;48.752;9.180;2023-10-31T08:20:45;12.10;99.90
423;DHT22;198;48.752;9.180;2023-10-31T08:23:14;12.20;99.90
423;DHT22;198;48.752;9.180;2023-10-31T08:25:39;12.40;99.90
423;DHT22;198;48.752;9.180;2023-10-31T08:28:05;12.60;99.90
423;DHT22;198;48.752;9.180;2023-10-31T08:30:30;12.90;99.90
423;DHT22;198;48.752;9.180;2023-10-31T08:32:56;13.00;99.90
423;DHT22;198;48.752;9.180;2023-10-31T08:35:21;13.20;99.90
423;DHT22;198;48.752;9.180;2023-10-31T08:37:47;13.50;99.90
423;DHT22;198;48.752;9.180;2023-10-31T08:40:12;13.70;99.90
423;DHT22;198;48.752;9.180;2023-10-31T08:42:38;13.80;99.90
423;DHT22;198;48.752;9.180;2023-10-31T08:45:04;13.70;99.90
423;DHT22;198;48.752;9.180;2023-10-31T08:47:29;13.80;99.90
423;DHT22;198;48.752;9.180;2023-10-31T08:49:55;13.80;99.90
423;DHT22;198;48.752;9.180;2023-10-31T08:52:20;14.00;99.90
423;DHT22;198;48.752;9.180;2023-10-31T08:54:47;14.00;99.90
423;DHT22;198;48.752;9.180;2023-10-31T08:57:13;14.20;99.90
423;DHT22;198;48.752;9.180;2023-10-31T08:59:39;14.60;99.90
423;DHT22;198;48.752;9.180;2023-10-31T09:02:05;14.80;99.90
423;DHT22;198;48.752;9.180;2023-10-31T09:04:30;15.20;99.90
423;DHT22;198;48.752;9.180;2023-10-31T09:06:56;15.60;99.90
423;DHT22;198;48.752;9.180;2023-10-31T09:09:21;16.10;99.90
423;DHT22;198;48.752;9.180;2023-10-31T09:11:47;16.40;99.90
423;DHT22;198;48.752;9.180;2023-10-31T09:14:12;16.80;97.90
423;DHT22;198;48.752;9.180;2023-10-31T09:16:38;17.20;95.10
423;DHT22;198;48.752;9.180;2023-10-31T09:19:03;17.20;92.90
423;DHT22;198;48.752;9.180;2023-10-31T09:21:29;16.90;92.90
423;DHT22;198;48.752;9.180;2023-10-31T09:23:54;16.70;92.90
423;DHT22;198;48.752;9.180;2023-10-31T09:26:20;17.10;92.10
423;DHT22;198;48.752;9.180;2023-10-31T09:28:45;17.40;91.90
423;DHT22;198;48.752;9.180;2023-10-31T09:31:18;17.80;89.70
423;DHT22;198;48.752;9.180;2023-10-31T09:33:44;17.90;83.10
423;DHT22;198;48.752;9.180;2023-10-31T09:36:10;17.30;83.80
423;DHT22;198;48.752;9.180;2023-10-31T09:38:36;16.70;84.60
423;DHT22;198;48.752;9.180;2023-10-31T09:41:02;16.60;88.20
423;DHT22;198;48.752;9.180;2023-10-31T09:43:28;16.80;87.60
423;DHT22;198;48.752;9.180;2023-10-31T09:45:53;17.10;85.60
423;DHT22;198;48.752;9.180;2023-10-31T09:48:19;16.90;83.80
423;DHT22;198;48.752;9.180;2023-10-31T09:50:46;17.20;84.20
423;DHT22;198;48.752;9.180;2023-10-31T09:53:14;17.50;82.20
423;DHT22;198;48.752;9.180;2023-10-31T09:55:39;17.50;79.60
423;DHT22;198;48.752;9.180;2023-10-31T09:58:05;17.70;78.70
423;DHT22;198;48.752;9.180;2023-10-31T10:00:31;17.30;78.60
423;DHT22;198;48.752;9.180;2023-10-31T10:02:57;16.60;80.20
423;DHT22;198;48.752;9.180;2023-10-31T10:05:23;16.10;85.30
423;DHT22;198;48.752;9.180;2023-10-31T10:07:48;15.70;87.80
423;DHT22;198;48.752;9.180;2023-10-31T10:10:16;15.40;90.30
423;DHT22;198;48.752;9.180;2023-10-31T10:12:42;15.00;92.30
423;DHT22;198;48.752;9.180;2023-10-31T10:15:10;14.80;93.50
423;DHT22;198;48.752;9.180;2023-10-31T10:17:36;14.50;95.00
423;DHT22;198;48.752;9.180;2023-10-31T10:20:11;14.20;96.00
423;DHT22;198;48.752;9.180;2023-10-31T10:22:41;14.00;97.70
423;DHT22;198;48.752;9.180;2023-10-31T10:25:09;13.80;99.80
423;DHT22;198;48.752;9.180;2023-10-31T10:27:34;13.80;99.90
423;DHT22;198;48.752;9.180;2023-10-31T10:30:02;14.10;99.90
423;DHT22;198;48.752;9.180;2023-10-31T10:32:28;14.50;99.90
423;DHT22;198;48.752;9.180;2023-10-31T10:34:54;14.60;99.90
423;DHT22;198;48.752;9.180;2023-10-31T10:37:20;14.80;99.70
423;DHT22;198;48.752;9.180;2023-10-31T10:39:51;14.90;99.10
423;DHT22;198;48.752;9.180;2023-10-31T10:42:33;14.80;98.10
423;DHT22;198;48.752;9.180;2023-10-31T10:45:03;14.60;98.10
423;DHT22;198;48.752;9.180;2023-10-31T10:47:32;14.50;98.30
423;DHT22;198;48.752;9.180;2023-10-31T10:49:59;14.40;99.10
423;DHT22;198;48.752;9.180;2023-10-31T10:52:38;14.20;99.70
423;DHT22;198;48.752;9.180;2023-10-31T10:55:12;14.10;99.90
423;DHT22;198;48.752;9.180;2023-10-31T11:00:09;14.10;99.90
423;DHT22;198;48.752;9.180;2023-10-31T11:02:39;14.20;99.90
423;DHT22;198;48.752;9.180;2023-10-31T11:05:08;14.30;99.90
423;DHT22;198;48.752;9.180;2023-10-31T11:07:35;14.30;99.90
423;DHT22;198;48.752;9.180;2023-10-31T11:10:02;14.20;99.90
423;DHT22;198;48.752;9.180;2023-10-31T11:12:29;14.10;99.90
423;DHT22;198;48.752;9.180;2023-10-31T11:14:57;14.10;99.90
423;DHT22;198;48.752;9.180;2023-10-31T11:17:32;14.30;99.90
423;DHT22;198;48.752;9.180;2023-10-31T11:20:00;14.40;99.90
423;DHT22;198;48.752;9.180;2023-10-31T11:22:25;14.50;99.90
423;DHT22;198;48.752;9.180;2023-10-31T11:25:01;14.50;99.90
423;DHT22;198;48.752;9.180;2023-10-31T11:27:27;14.60;99.90
423;DHT22;198;48.752;9.180;2023-10-31T11:29:54;14.70;99.90
423;DHT22;198;48.752;9.180;2023-10-31T11:32:22;14.70;99.90
423;DHT22;198;48.752;9.180;2023-10-31T11:34:47;14.90;99.90
423;DHT22;198;48.752;9.180;2023-10-31T11:37:26;15.20;99.90
423;DHT22;198;48.752;9.180;2023-10-31T11:42:57;16.80;99.60
423;DHT22;198;48.752;9.180;2023-10-31T11:48:01;16.90;93.90
423;DHT22;198;48.752;9.180;2023-10-31T11:50:27;16.80;92.00
423;DHT22;198;48.752;9.180;2023-10-31T11:53:06;16.60;91.50
423;DHT22;198;48.752;9.180;2023-10-31T11:55:34;16.60;91.30
423;DHT22;198;48.752;9.180;2023-10-31T12:00:44;16.20;90.60
423;DHT22;198;48.752;9.180;2023-10-31T12:03:10;15.70;89.50
423;DHT22;198;48.752;9.180;2023-10-31T12:05:36;15.20;90.30
423;DHT22;198;48.752;9.180;2023-10-31T12:08:01;14.90;92.10
423;DHT22;198;48.752;9.180;2023-10-31T12:10:29;14.60;93.10
423;DHT22;198;48.752;9.180;2023-10-31T12:12:56;14.40;94.20
423;DHT22;198;48.752;9.180;2023-10-31T12:15:23;14.30;96.10
423;DHT22;198;48.752;9.180;2023-10-31T12:17:49;14.40;98.30
423;DHT22;198;48.752;9.180;2023-10-31T12:20:15;14.50;99.10
423;DHT22;198;48.752;9.180;2023-10-31T12:22:43;14.50;99.30
423;DHT22;198;48.752;9.180;2023-10-31T12:25:10;14.40;99.90
423;DHT22;198;48.752;9.180;2023-10-31T12:27:46;14.40;99.90
423;DHT22;198;48.752;9.180;2023-10-31T12:30:16;14.50;99.90
423;DHT22;198;48.752;9.180;2023-10-31T12:32:43;14.60;99.90
423;DHT22;198;48.752;9.180;2023-10-31T12:35:15;14.60;99.90
423;DHT22;198;48.752;9.180;2023-10-31T12:37:49;14.60;99.90
423;DHT22;198;48.752;9.180;2023-10-31T12:40:19;14.50;99.90
423;DHT22;198;48.752;9.180;2023-10-31T12:42:46;14.50;99.90
423;DHT22;198;48.752;9.180;2023-10-31T12:45:13;14.40;99.90
423;DHT22;198;48.752;9.180;2023-10-31T12:47:39;14.40;99.90
423;DHT22;198;48.752;9.180;2023-10-31T12:50:12;14.30;99.90
423;DHT22;198;48.752;9.180;2023-10-31T12:52:51;14.20;99.90
423;DHT22;198;48.752;9.180;2023-10-31T12:55:19;14.10;99.90
423;DHT22;198;48.752;9.180;2023-10-31T12:57:46;14.00;99.90
423;DHT22;198;48.752;9.180;2023-10-31T13:00:12;13.90;99.90
423;DHT22;198;48.752;9.180;2023-10-31T13:02:42;13.90;99.90
423;DHT22;198;48.752;9.180;2023-10-31T13:05:12;13.80;99.90
423;DHT22;198;48.752;9.180;2023-10-31T13:07:38;13.70;99.90
423;DHT22;198;48.752;9.180;2023-10-31T13:10:05;13.70;99.90
423;DHT22;198;48.752;9.180;2023-10-31T13:12:31;13.80;99.90
423;DHT22;198;48.752;9.180;2023-10-31T13:14:57;13.80;99.90
423;DHT22;198;48.752;9.180;2023-10-31T13:17:22;13.90;99.90
423;DHT22;198;48.752;9.180;2023-10-31T13:19:48;13.90;99.90
423;DHT22;198;48.752;9.180;2023-10-31T13:22:13;14.00;99.90
423;DHT22;198;48.752;9.180;2023-10-31T13:24:39;14.10;99.90
423;DHT22;198;48.752;9.180;2023-10-31T13:27:06;14.30;99.90
423;DHT22;198;48.752;9.180;2023-10-31T13:29:31;14.30;99.90
423;DHT22;198;48.752;9.180;2023-10-31T13:31:58;14.20;99.90
423;DHT22;198;48.752;9.180;2023-10-31T13:34:23;14.10;99.90
423;DHT22;198;48.752;9.180;2023-10-31T13:36:49;14.10;99.90
423;DHT22;198;48.752;9.180;2023-10-31T13:39:14;14.30;99.90
423;DHT22;198;48.752;9.180;2023-10-31T13:41:40;14.30;99.90
423;DHT22;198;48.752;9.180;2023-10-31T13:44:06;14.30;99.90
423;DHT22;198;48.752;9.180;2023-10-31T13:46:31;14.30;99.90
423;DHT22;198;48.752;9.180;2023-10-31T13:48:57;14.40;99.90
423;DHT22;198;48.752;9.180;2023-10-31T13:51:22;14.40;99.90
423;DHT22;198;48.752;9.180;2023-10-31T13:53:48;14.50;99.90
423;DHT22;198;48.752;9.180;2023-10-31T13:56:15;14.60;99.90
423;DHT22;198;48.752;9.180;2023-10-31T13:58:41;14.70;99.90
423;DHT22;198;48.752;9.180;2023-10-31T14:01:06;15.00;99.90
423;DHT22;198;48.752;9.180;2023-10-31T14:03:32;15.30;99.90
423;DHT22;198;48.752;9.180;2023-10-31T14:05:57;15.50;99.90
423;DHT22;198;48.752;9.180;2023-10-31T14:08:23;15.50;99.90
423;DHT22;198;48.752;9.180;2023-10-31T14:10:48;15.40;99.90
423;DHT22;198;48.752;9.180;2023-10-31T14:13:14;15.40;99.90
423;DHT22;198;48.752;9.180;2023-10-31T14:15:39;15.20;99.90
423;DHT22;198;48.752;9.180;2023-10-31T14:18:06;15.00;99.90
423;DHT22;198;48.752;9.180;2023-10-31T14:20:33;14.90;99.90
423;DHT22;198;48.752;9.180;2023-10-31T14:22:58;14.90;99.90
423;DHT22;198;48.752;9.180;2023-10-31T14:25:24;14.80;99.90
423;DHT22;198;48.752;9.180;2023-10-31T14:27:49;14.80;99.90
423;DHT22;198;48.752;9.180;2023-10-31T14:30:15;14.70;99.90
423;DHT22;198;48.752;9.180;2023-10-31T14:32:41;14.60;99.90
423;DHT22;198;48.752;9.180;2023-10-31T14:35:07;14.60;99.90
423;DHT22;198;48.752;9.180;2023-10-31T14:37:33;14.60;99.90
423;DHT22;198;48.752;9.180;2023-10-31T14:40:00;14.60;99.90
423;DHT22;198;48.752;9.180;2023-10-31T14:42:26;14.50;99.90
423;DHT22;198;48.752;9.180;2023-10-31T14:44:51;14.40;99.90
423;DHT22;198;48.752;9.180;2023-10-31T14:47:17;14.40;99.90
423;DHT22;198;48.752;9.180;2023-10-31T14:49:44;14.20;99.90
423;DHT22;198;48.752;9.180;2023-10-31T14:52:09;14.10;99.90
423;DHT22;198;48.752;9.180;2023-10-31T14:54:35;14.00;99.90
423;DHT22;198;48.752;9.180;2023-10-31T14:57:03;14.00;99.90
423;DHT22;198;48.752;9.180;2023-10-31T14:59:29;14.10;99.90
423;DHT22;198;48.752;9.180;2023-10-31T15:01:55;14.20;99.90
423;DHT22;198;48.752;9.180;2023-10-31T15:04:20;14.20;99.90
423;DHT22;198;48.752;9.180;2023-10-31T15:06:46;14.10;99.90
423;DHT22;198;48.752;9.180;2023-10-31T15:09:11;14.10;99.90
423;DHT22;198;48.752;9.180;2023-10-31T15:11:37;14.10;99.90
423;DHT22;198;48.752;9.180;2023-10-31T15:14:03;14.10;99.90
423;DHT22;198;48.752;9.180;2023-10-31T15:16:28;14.00;99.90
423;DHT22;198;48.752;9.180;2023-10-31T15:18:54;13.80;99.90
423;DHT22;198;48.752;9.180;2023-10-31T15:21:19;13.70;99.90
423;DHT22;198;48.752;9.180;2023-10-31T15:23:45;13.60;99.90
423;DHT22;198;48.752;9.180;2023-10-31T15:26:11;13.40;99.90
423;DHT22;198;48.752;9.180;2023-10-31T15:28:39;13.20;99.90
423;DHT22;198;48.752;9.180;2023-10-31T15:31:05;13.10;99.90
423;DHT22;198;48.752;9.180;2023-10-31T15:33:31;13.10;99.90
423;DHT22;198;48.752;9.180;2023-10-31T15:35:56;13.00;99.90
423;DHT22;198;48.752;9.180;2023-10-31T15:38:22;13.00;99.90
423;DHT22;198;48.752;9.180;2023-10-31T15:40:48;12.90;99.90
423;DHT22;198;48.752;9.180;2023-10-31T15:43:13;12.80;99.90
423;DHT22;198;48.752;9.180;2023-10-31T15:45:39;12.70;99.90
423;DHT22;198;48.752;9.180;2023-10-31T15:48:06;12.60;99.90
423;DHT22;198;48.752;9.180;2023-10-31T15:50:33;12.50;99.90
423;DHT22;198;48.752;9.180;2023-10-31T15:52:59;12.50;99.90
423;DHT22;198;48.752;9.180;2023-10-31T15:55:24;12.50;99.90
423;DHT22;198;48.752;9.180;2023-10-31T15:57:50;12.50;99.90
423;DHT22;198;48.752;9.180;2023-10-31T16:00:16;12.50;99.90
423;DHT22;198;48.752;9.180;2023-10-31T16:02:41;12.50;99.90
423;DHT22;198;48.752;9.180;2023-10-31T16:05:07;12.50;99.90
423;DHT22;198;48.752;9.180;2023-10-31T16:07:33;12.40;99.90
423;DHT22;198;48.752;9.180;2023-10-31T16:10:02;12.40;99.90
423;DHT22;198;48.752;9.180;2023-10-31T16:12:27;12.30;99.90
423;DHT22;198;48.752;9.180;2023-10-31T16:14:53;12.30;99.90
423;DHT22;198;48.752;9.180;2023-10-31T16:17:18;12.30;99.90
423;DHT22;198;48.752;9.180;2023-10-31T16:19:44;12.30;99.90
423;DHT22;198;48.752;9.180;2023-10-31T16:22:09;12.20;99.90
423;DHT22;198;48.752;9.180;2023-10-31T16:24:38;12.20;99.90
423;DHT22;198;48.752;9.180;2023-10-31T16:27:03;12.10;99.90
423;DHT22;198;48.752;9.180;2023-10-31T16:29:29;12.10;99.90
423;DHT22;198;48.752;9.180;2023-10-31T16:31:54;12.00;99.90
423;DHT22;198;48.752;9.180;2023-10-31T16:34:20;11.90;99.90
423;DHT22;198;48.752;9.180;2023-10-31T16:36:46;11.80;99.90
423;DHT22;198;48.752;9.180;2023-10-31T16:39:11;11.70;99.90
423;DHT22;198;48.752;9.180;2023-10-31T16:41:37;11.60;99.90